< < Back
Terminal Aerodrome Forecast


Current Version              Previous Versions:   1  2  3  4  5  6  7  8  9  

Terminal Aerodrome Forecast

844
FTUS42 KCHS 220500
TAFCHS
TAF
KCHS 220524Z 2206/2306 35008KT P6SM SKC
     FM221330 35011G16KT P6SM SKC
     FM221900 33009KT P6SM SKC=



Latest METAR

457
SAUS80 KWBC 222200 RRB
MTRCHS
METAR KCHS 222156Z 34010KT 10SM CLR 19/05 A3001 RMK AO2 SLP162
T01890050


USA.gov is the U.S. government's official web portal to all federal, state and local government web resources and services.